19  °C
Temperature
5  °C
  Dewpoint
   Humidity
Temp | Dewpoint | Humidity
8  km/h
Wind Speed
5  mph
Wind Speed
4  kts
Wind Speed
Calm
Due North

Wind Speed
Partly Cloudy
Conditions
Pressure 1016.92 (hPa) - 30.03 (in)
Visibility 6.2 (mi) - 10.0 (km)

Current Conditions
LKLN
Location 6km (3.2mi)
Metar :LKLN 231400Z AUTO VRB04KT 9999 FEW058 BKN068 19/05 Q1017
Thu 23rd May 16:00 pm

Airport
  Metar Aviation API Data Provided by https://www.checkwx.com/ CSS/SVG/PHP scripts by weather34.com © 2015-2019